sensor_id;sensor_type;location;lat;lon;timestamp;P1;durP1;ratioP1;P2;durP2;ratioP2
26620;SDS011;14253;44.840;10.444;2022-07-30T00:00:42;23.42;;;20.35;;
26620;SDS011;14253;44.840;10.444;2022-07-30T00:03:08;24.45;;;21.83;;
26620;SDS011;14253;44.840;10.444;2022-07-30T00:05:35;23.38;;;20.85;;
26620;SDS011;14253;44.840;10.444;2022-07-30T00:08:01;24.13;;;21.52;;
26620;SDS011;14253;44.840;10.444;2022-07-30T00:10:27;26.08;;;21.05;;
26620;SDS011;14253;44.840;10.444;2022-07-30T00:12:53;25.15;;;21.95;;
26620;SDS011;14253;44.840;10.444;2022-07-30T00:15:19;23.15;;;20.65;;
26620;SDS011;14253;44.840;10.444;2022-07-30T00:17:45;23.98;;;21.35;;
26620;SDS011;14253;44.840;10.444;2022-07-30T00:20:11;22.92;;;20.52;;
26620;SDS011;14253;44.840;10.444;2022-07-30T00:22:37;27.02;;;24.10;;
26620;SDS011;14253;44.840;10.444;2022-07-30T00:25:04;24.27;;;21.75;;
26620;SDS011;14253;44.840;10.444;2022-07-30T00:27:30;23.45;;;20.95;;
26620;SDS011;14253;44.840;10.444;2022-07-30T00:29:59;26.60;;;23.77;;
26620;SDS011;14253;44.840;10.444;2022-07-30T00:32:25;25.98;;;23.00;;
26620;SDS011;14253;44.840;10.444;2022-07-30T00:34:51;26.13;;;23.33;;
26620;SDS011;14253;44.840;10.444;2022-07-30T00:37:18;26.08;;;22.73;;
26620;SDS011;14253;44.840;10.444;2022-07-30T00:39:43;30.45;;;25.67;;
26620;SDS011;14253;44.840;10.444;2022-07-30T00:42:09;28.42;;;23.75;;
26620;SDS011;14253;44.840;10.444;2022-07-30T00:44:35;28.80;;;24.15;;
26620;SDS011;14253;44.840;10.444;2022-07-30T00:47:01;28.45;;;24.70;;
26620;SDS011;14253;44.840;10.444;2022-07-30T00:49:28;30.77;;;26.63;;
26620;SDS011;14253;44.840;10.444;2022-07-30T00:51:54;30.52;;;27.08;;
26620;SDS011;14253;44.840;10.444;2022-07-30T00:54:20;31.38;;;26.05;;
26620;SDS011;14253;44.840;10.444;2022-07-30T00:56:46;27.65;;;24.73;;
26620;SDS011;14253;44.840;10.444;2022-07-30T00:59:13;29.50;;;26.23;;
26620;SDS011;14253;44.840;10.444;2022-07-30T01:01:39;33.83;;;28.08;;
26620;SDS011;14253;44.840;10.444;2022-07-30T01:04:05;31.90;;;28.42;;
26620;SDS011;14253;44.840;10.444;2022-07-30T01:06:36;33.42;;;28.20;;
26620;SDS011;14253;44.840;10.444;2022-07-30T01:09:03;31.75;;;26.60;;
26620;SDS011;14253;44.840;10.444;2022-07-30T01:11:33;32.65;;;28.42;;
26620;SDS011;14253;44.840;10.444;2022-07-30T01:14:02;35.35;;;28.77;;
26620;SDS011;14253;44.840;10.444;2022-07-30T01:16:30;32.95;;;29.38;;
26620;SDS011;14253;44.840;10.444;2022-07-30T01:18:56;34.30;;;30.55;;
26620;SDS011;14253;44.840;10.444;2022-07-30T01:21:44;36.50;;;31.67;;
26620;SDS011;14253;44.840;10.444;2022-07-30T01:24:22;34.45;;;30.80;;
26620;SDS011;14253;44.840;10.444;2022-07-30T01:27:02;33.22;;;29.70;;
26620;SDS011;14253;44.840;10.444;2022-07-30T01:29:30;37.10;;;30.90;;
26620;SDS011;14253;44.840;10.444;2022-07-30T01:31:56;31.60;;;27.38;;
26620;SDS011;14253;44.840;10.444;2022-07-30T01:34:28;32.92;;;27.33;;
26620;SDS011;14253;44.840;10.444;2022-07-30T01:36:57;32.25;;;27.25;;
26620;SDS011;14253;44.840;10.444;2022-07-30T01:39:24;29.70;;;26.50;;
26620;SDS011;14253;44.840;10.444;2022-07-30T01:41:52;31.10;;;27.80;;
26620;SDS011;14253;44.840;10.444;2022-07-30T01:44:20;34.83;;;29.15;;
26620;SDS011;14253;44.840;10.444;2022-07-30T01:46:48;30.15;;;26.98;;
26620;SDS011;14253;44.840;10.444;2022-07-30T01:49:14;31.42;;;28.05;;
26620;SDS011;14253;44.840;10.444;2022-07-30T01:51:41;32.67;;;29.17;;
26620;SDS011;14253;44.840;10.444;2022-07-30T01:54:09;29.75;;;26.55;;
26620;SDS011;14253;44.840;10.444;2022-07-30T01:56:37;32.05;;;28.65;;
26620;SDS011;14253;44.840;10.444;2022-07-30T01:59:05;33.53;;;29.92;;
26620;SDS011;14253;44.840;10.444;2022-07-30T02:01:34;35.55;;;30.10;;
26620;SDS011;14253;44.840;10.444;2022-07-30T02:04:01;32.88;;;29.38;;
26620;SDS011;14253;44.840;10.444;2022-07-30T02:06:31;34.38;;;30.55;;
26620;SDS011;14253;44.840;10.444;2022-07-30T02:09:10;34.75;;;30.75;;
26620;SDS011;14253;44.840;10.444;2022-07-30T02:11:41;33.45;;;28.38;;
26620;SDS011;14253;44.840;10.444;2022-07-30T02:15:10;31.73;;;28.25;;
26620;SDS011;14253;44.840;10.444;2022-07-30T02:17:59;39.83;;;31.10;;
26620;SDS011;14253;44.840;10.444;2022-07-30T02:20:28;36.35;;;30.60;;
26620;SDS011;14253;44.840;10.444;2022-07-30T02:22:59;37.08;;;31.15;;
26620;SDS011;14253;44.840;10.444;2022-07-30T02:25:31;35.67;;;27.92;;
26620;SDS011;14253;44.840;10.444;2022-07-30T02:28:02;33.97;;;30.45;;
26620;SDS011;14253;44.840;10.444;2022-07-30T02:30:31;35.97;;;30.88;;
26620;SDS011;14253;44.840;10.444;2022-07-30T02:33:02;34.60;;;30.95;;
26620;SDS011;14253;44.840;10.444;2022-07-30T02:35:35;34.65;;;30.80;;
26620;SDS011;14253;44.840;10.444;2022-07-30T02:38:01;35.83;;;30.77;;
26620;SDS011;14253;44.840;10.444;2022-07-30T02:40:29;37.80;;;31.02;;
26620;SDS011;14253;44.840;10.444;2022-07-30T02:42:58;33.78;;;29.65;;
26620;SDS011;14253;44.840;10.444;2022-07-30T02:45:26;34.75;;;28.80;;
26620;SDS011;14253;44.840;10.444;2022-07-30T02:48:02;30.58;;;27.30;;
26620;SDS011;14253;44.840;10.444;2022-07-30T02:50:36;30.80;;;27.60;;
26620;SDS011;14253;44.840;10.444;2022-07-30T02:53:06;33.50;;;29.88;;
26620;SDS011;14253;44.840;10.444;2022-07-30T02:55:34;34.85;;;31.10;;
26620;SDS011;14253;44.840;10.444;2022-07-30T02:58:03;34.95;;;29.77;;
26620;SDS011;14253;44.840;10.444;2022-07-30T03:00:31;31.65;;;28.23;;
26620;SDS011;14253;44.840;10.444;2022-07-30T03:02:59;31.13;;;27.75;;
26620;SDS011;14253;44.840;10.444;2022-07-30T03:05:26;32.63;;;29.13;;
26620;SDS011;14253;44.840;10.444;2022-07-30T03:07:54;32.97;;;28.33;;
26620;SDS011;14253;44.840;10.444;2022-07-30T03:10:22;32.15;;;28.08;;
26620;SDS011;14253;44.840;10.444;2022-07-30T03:12:50;31.92;;;27.73;;
26620;SDS011;14253;44.840;10.444;2022-07-30T03:15:17;34.92;;;27.38;;
26620;SDS011;14253;44.840;10.444;2022-07-30T03:17:48;34.65;;;27.67;;
26620;SDS011;14253;44.840;10.444;2022-07-30T03:20:17;34.67;;;27.45;;
26620;SDS011;14253;44.840;10.444;2022-07-30T03:22:49;31.13;;;27.85;;
26620;SDS011;14253;44.840;10.444;2022-07-30T03:25:18;30.13;;;26.90;;
26620;SDS011;14253;44.840;10.444;2022-07-30T03:27:48;36.95;;;28.63;;
26620;SDS011;14253;44.840;10.444;2022-07-30T03:30:16;29.60;;;26.40;;
26620;SDS011;14253;44.840;10.444;2022-07-30T03:32:43;33.40;;;26.67;;
26620;SDS011;14253;44.840;10.444;2022-07-30T03:35:09;32.90;;;28.27;;
26620;SDS011;14253;44.840;10.444;2022-07-30T03:37:36;38.70;;;31.33;;
26620;SDS011;14253;44.840;10.444;2022-07-30T03:40:05;41.08;;;32.42;;
26620;SDS011;14253;44.840;10.444;2022-07-30T03:42:32;48.30;;;35.20;;
26620;SDS011;14253;44.840;10.444;2022-07-30T03:45:05;47.42;;;38.03;;
26620;SDS011;14253;44.840;10.444;2022-07-30T03:47:34;55.22;;;40.75;;
26620;SDS011;14253;44.840;10.444;2022-07-30T03:50:02;54.92;;;41.60;;
26620;SDS011;14253;44.840;10.444;2022-07-30T03:52:31;60.05;;;41.55;;
26620;SDS011;14253;44.840;10.444;2022-07-30T03:55:00;66.57;;;47.78;;
26620;SDS011;14253;44.840;10.444;2022-07-30T03:57:50;57.20;;;43.83;;
26620;SDS011;14253;44.840;10.444;2022-07-30T04:00:23;56.72;;;43.63;;
26620;SDS011;14253;44.840;10.444;2022-07-30T04:02:51;56.33;;;44.22;;
26620;SDS011;14253;44.840;10.444;2022-07-30T04:05:45;63.40;;;46.13;;
26620;SDS011;14253;44.840;10.444;2022-07-30T04:08:11;59.05;;;42.88;;
26620;SDS011;14253;44.840;10.444;2022-07-30T04:10:38;60.13;;;43.70;;
26620;SDS011;14253;44.840;10.444;2022-07-30T04:13:07;59.15;;;44.20;;
26620;SDS011;14253;44.840;10.444;2022-07-30T04:15:35;59.92;;;44.47;;
26620;SDS011;14253;44.840;10.444;2022-07-30T04:18:07;57.35;;;42.55;;
26620;SDS011;14253;44.840;10.444;2022-07-30T04:20:38;61.17;;;45.13;;
26620;SDS011;14253;44.840;10.444;2022-07-30T04:23:08;62.85;;;45.05;;
26620;SDS011;14253;44.840;10.444;2022-07-30T04:25:35;59.75;;;43.25;;
26620;SDS011;14253;44.840;10.444;2022-07-30T04:28:03;55.17;;;40.88;;
26620;SDS011;14253;44.840;10.444;2022-07-30T04:30:30;54.55;;;38.08;;
26620;SDS011;14253;44.840;10.444;2022-07-30T04:33:00;57.47;;;41.78;;
26620;SDS011;14253;44.840;10.444;2022-07-30T04:35:39;51.08;;;38.80;;
26620;SDS011;14253;44.840;10.444;2022-07-30T04:38:14;49.20;;;36.40;;
26620;SDS011;14253;44.840;10.444;2022-07-30T04:40:43;46.42;;;34.00;;
26620;SDS011;14253;44.840;10.444;2022-07-30T04:43:10;45.67;;;33.55;;
26620;SDS011;14253;44.840;10.444;2022-07-30T04:45:38;44.78;;;34.25;;
26620;SDS011;14253;44.840;10.444;2022-07-30T04:48:05;43.17;;;31.42;;
26620;SDS011;14253;44.840;10.444;2022-07-30T04:50:31;41.65;;;31.98;;
26620;SDS011;14253;44.840;10.444;2022-07-30T04:52:59;42.78;;;31.13;;
26620;SDS011;14253;44.840;10.444;2022-07-30T04:57:58;38.15;;;30.27;;
26620;SDS011;14253;44.840;10.444;2022-07-30T05:00:28;39.22;;;31.50;;
26620;SDS011;14253;44.840;10.444;2022-07-30T05:02:56;39.63;;;29.83;;
26620;SDS011;14253;44.840;10.444;2022-07-30T05:05:23;43.15;;;32.92;;
26620;SDS011;14253;44.840;10.444;2022-07-30T05:07:52;43.17;;;33.13;;
26620;SDS011;14253;44.840;10.444;2022-07-30T05:10:19;39.80;;;32.08;;
26620;SDS011;14253;44.840;10.444;2022-07-30T05:12:45;37.22;;;30.55;;
26620;SDS011;14253;44.840;10.444;2022-07-30T05:15:14;35.45;;;29.63;;
26620;SDS011;14253;44.840;10.444;2022-07-30T05:17:40;37.50;;;30.83;;
26620;SDS011;14253;44.840;10.444;2022-07-30T05:20:08;36.83;;;31.35;;
26620;SDS011;14253;44.840;10.444;2022-07-30T05:23:01;36.75;;;29.25;;
26620;SDS011;14253;44.840;10.444;2022-07-30T05:25:28;37.60;;;29.10;;
26620;SDS011;14253;44.840;10.444;2022-07-30T05:28:04;47.30;;;31.67;;
26620;SDS011;14253;44.840;10.444;2022-07-30T05:30:30;46.28;;;30.05;;
26620;SDS011;14253;44.840;10.444;2022-07-30T05:32:58;39.53;;;28.48;;
26620;SDS011;14253;44.840;10.444;2022-07-30T05:35:24;38.13;;;29.80;;
26620;SDS011;14253;44.840;10.444;2022-07-30T05:37:52;39.40;;;31.98;;
26620;SDS011;14253;44.840;10.444;2022-07-30T05:40:18;36.90;;;28.83;;
26620;SDS011;14253;44.840;10.444;2022-07-30T05:43:10;38.47;;;29.77;;
26620;SDS011;14253;44.840;10.444;2022-07-30T05:45:37;35.30;;;30.10;;
26620;SDS011;14253;44.840;10.444;2022-07-30T05:48:04;37.28;;;30.58;;
26620;SDS011;14253;44.840;10.444;2022-07-30T05:50:30;34.05;;;30.38;;
26620;SDS011;14253;44.840;10.444;2022-07-30T05:52:56;35.08;;;30.10;;
26620;SDS011;14253;44.840;10.444;2022-07-30T05:55:41;40.40;;;31.42;;
26620;SDS011;14253;44.840;10.444;2022-07-30T05:58:14;36.45;;;30.30;;
26620;SDS011;14253;44.840;10.444;2022-07-30T06:00:39;36.97;;;29.40;;
26620;SDS011;14253;44.840;10.444;2022-07-30T06:03:06;33.83;;;27.67;;
26620;SDS011;14253;44.840;10.444;2022-07-30T06:06:10;36.60;;;29.08;;
26620;SDS011;14253;44.840;10.444;2022-07-30T06:08:37;34.05;;;26.77;;
26620;SDS011;14253;44.840;10.444;2022-07-30T06:11:03;32.40;;;26.52;;
26620;SDS011;14253;44.840;10.444;2022-07-30T06:13:30;35.38;;;26.83;;
26620;SDS011;14253;44.840;10.444;2022-07-30T06:15:56;31.98;;;27.67;;
26620;SDS011;14253;44.840;10.444;2022-07-30T06:18:22;32.20;;;26.70;;
26620;SDS011;14253;44.840;10.444;2022-07-30T06:20:49;31.05;;;26.15;;
26620;SDS011;14253;44.840;10.444;2022-07-30T06:23:38;33.95;;;28.42;;
26620;SDS011;14253;44.840;10.444;2022-07-30T06:26:05;30.90;;;26.70;;
26620;SDS011;14253;44.840;10.444;2022-07-30T06:28:31;30.55;;;26.33;;
26620;SDS011;14253;44.840;10.444;2022-07-30T06:30:57;34.65;;;28.25;;
26620;SDS011;14253;44.840;10.444;2022-07-30T06:33:26;30.40;;;27.02;;
26620;SDS011;14253;44.840;10.444;2022-07-30T06:35:52;39.63;;;26.20;;
26620;SDS011;14253;44.840;10.444;2022-07-30T06:38:21;33.20;;;25.85;;
26620;SDS011;14253;44.840;10.444;2022-07-30T06:40:59;29.88;;;25.05;;
26620;SDS011;14253;44.840;10.444;2022-07-30T06:43:45;32.30;;;24.58;;
26620;SDS011;14253;44.840;10.444;2022-07-30T06:46:28;33.03;;;26.50;;
26620;SDS011;14253;44.840;10.444;2022-07-30T06:48:54;27.45;;;23.15;;
26620;SDS011;14253;44.840;10.444;2022-07-30T06:51:20;28.17;;;23.02;;
26620;SDS011;14253;44.840;10.444;2022-07-30T06:53:47;27.85;;;23.98;;
26620;SDS011;14253;44.840;10.444;2022-07-30T06:56:13;26.92;;;21.67;;
26620;SDS011;14253;44.840;10.444;2022-07-30T06:58:56;27.50;;;23.33;;
26620;SDS011;14253;44.840;10.444;2022-07-30T07:01:40;25.10;;;21.88;;
26620;SDS011;14253;44.840;10.444;2022-07-30T07:04:07;25.58;;;21.50;;
26620;SDS011;14253;44.840;10.444;2022-07-30T07:06:36;31.60;;;23.02;;
26620;SDS011;14253;44.840;10.444;2022-07-30T07:09:02;25.27;;;21.75;;
26620;SDS011;14253;44.840;10.444;2022-07-30T07:11:45;23.30;;;19.90;;
26620;SDS011;14253;44.840;10.444;2022-07-30T07:14:17;23.98;;;21.42;;
26620;SDS011;14253;44.840;10.444;2022-07-30T07:16:54;21.65;;;19.33;;
26620;SDS011;14253;44.840;10.444;2022-07-30T07:19:39;25.33;;;22.20;;
26620;SDS011;14253;44.840;10.444;2022-07-30T07:22:05;22.42;;;19.92;;
26620;SDS011;14253;44.840;10.444;2022-07-30T07:24:31;22.08;;;19.60;;
26620;SDS011;14253;44.840;10.444;2022-07-30T07:27:05;20.10;;;18.00;;
26620;SDS011;14253;44.840;10.444;2022-07-30T07:29:32;23.42;;;18.67;;
26620;SDS011;14253;44.840;10.444;2022-07-30T07:32:01;20.98;;;17.88;;
26620;SDS011;14253;44.840;10.444;2022-07-30T07:34:27;21.30;;;19.00;;
26620;SDS011;14253;44.840;10.444;2022-07-30T07:36:53;23.75;;;17.58;;
26620;SDS011;14253;44.840;10.444;2022-07-30T07:39:20;18.75;;;16.75;;
26620;SDS011;14253;44.840;10.444;2022-07-30T07:41:47;21.63;;;17.35;;
26620;SDS011;14253;44.840;10.444;2022-07-30T07:44:14;18.20;;;16.33;;
26620;SDS011;14253;44.840;10.444;2022-07-30T07:46:41;21.70;;;19.48;;
26620;SDS011;14253;44.840;10.444;2022-07-30T07:49:07;21.65;;;19.13;;
26620;SDS011;14253;44.840;10.444;2022-07-30T07:51:42;27.70;;;18.73;;
26620;SDS011;14253;44.840;10.444;2022-07-30T07:54:11;24.20;;;20.48;;
26620;SDS011;14253;44.840;10.444;2022-07-30T07:56:38;22.15;;;19.23;;
26620;SDS011;14253;44.840;10.444;2022-07-30T07:59:05;27.05;;;22.42;;
26620;SDS011;14253;44.840;10.444;2022-07-30T08:01:31;23.25;;;19.58;;
26620;SDS011;14253;44.840;10.444;2022-07-30T08:04:26;28.15;;;21.00;;
26620;SDS011;14253;44.840;10.444;2022-07-30T08:07:07;26.63;;;22.65;;
26620;SDS011;14253;44.840;10.444;2022-07-30T08:10:11;21.70;;;18.70;;
26620;SDS011;14253;44.840;10.444;2022-07-30T08:12:59;21.75;;;18.50;;
26620;SDS011;14253;44.840;10.444;2022-07-30T08:15:49;23.67;;;19.42;;
26620;SDS011;14253;44.840;10.444;2022-07-30T08:18:38;16.80;;;14.57;;
26620;SDS011;14253;44.840;10.444;2022-07-30T08:21:16;20.15;;;17.75;;
26620;SDS011;14253;44.840;10.444;2022-07-30T08:23:42;18.90;;;16.13;;
26620;SDS011;14253;44.840;10.444;2022-07-30T08:26:08;21.90;;;17.48;;
26620;SDS011;14253;44.840;10.444;2022-07-30T08:28:34;17.00;;;14.70;;
26620;SDS011;14253;44.840;10.444;2022-07-30T08:31:01;16.42;;;14.07;;
26620;SDS011;14253;44.840;10.444;2022-07-30T08:33:27;16.08;;;14.38;;
26620;SDS011;14253;44.840;10.444;2022-07-30T08:35:53;16.50;;;14.80;;
26620;SDS011;14253;44.840;10.444;2022-07-30T08:38:19;16.60;;;14.43;;
26620;SDS011;14253;44.840;10.444;2022-07-30T08:40:45;19.55;;;16.38;;
26620;SDS011;14253;44.840;10.444;2022-07-30T08:43:12;18.60;;;16.08;;
26620;SDS011;14253;44.840;10.444;2022-07-30T08:45:39;19.70;;;17.38;;
26620;SDS011;14253;44.840;10.444;2022-07-30T08:48:36;22.67;;;18.52;;
26620;SDS011;14253;44.840;10.444;2022-07-30T08:51:03;22.83;;;19.88;;
26620;SDS011;14253;44.840;10.444;2022-07-30T08:53:41;19.60;;;17.33;;
26620;SDS011;14253;44.840;10.444;2022-07-30T08:56:08;22.50;;;18.98;;
26620;SDS011;14253;44.840;10.444;2022-07-30T08:58:35;20.02;;;15.30;;
26620;SDS011;14253;44.840;10.444;2022-07-30T09:01:01;14.65;;;13.07;;
26620;SDS011;14253;44.840;10.444;2022-07-30T09:03:28;19.30;;;16.45;;
26620;SDS011;14253;44.840;10.444;2022-07-30T09:06:00;18.15;;;16.15;;
26620;SDS011;14253;44.840;10.444;2022-07-30T09:08:27;15.48;;;11.85;;
26620;SDS011;14253;44.840;10.444;2022-07-30T09:10:54;13.05;;;11.75;;
26620;SDS011;14253;44.840;10.444;2022-07-30T09:15:56;11.18;;;9.38;;
26620;SDS011;14253;44.840;10.444;2022-07-30T09:18:27;13.23;;;10.32;;
26620;SDS011;14253;44.840;10.444;2022-07-30T09:20:54;13.35;;;11.70;;
26620;SDS011;14253;44.840;10.444;2022-07-30T09:23:20;13.80;;;8.98;;
26620;SDS011;14253;44.840;10.444;2022-07-30T09:26:04;13.40;;;11.35;;
26620;SDS011;14253;44.840;10.444;2022-07-30T09:28:39;13.63;;;10.80;;
26620;SDS011;14253;44.840;10.444;2022-07-30T09:31:24;13.60;;;10.93;;
26620;SDS011;14253;44.840;10.444;2022-07-30T09:33:56;10.73;;;9.63;;
26620;SDS011;14253;44.840;10.444;2022-07-30T09:36:40;12.90;;;9.25;;
26620;SDS011;14253;44.840;10.444;2022-07-30T09:39:44;12.02;;;8.00;;
26620;SDS011;14253;44.840;10.444;2022-07-30T09:42:17;9.75;;;8.75;;
26620;SDS011;14253;44.840;10.444;2022-07-30T09:44:45;9.50;;;8.48;;
26620;SDS011;14253;44.840;10.444;2022-07-30T09:47:31;10.55;;;8.23;;
26620;SDS011;14253;44.840;10.444;2022-07-30T09:50:06;11.02;;;8.90;;
26620;SDS011;14253;44.840;10.444;2022-07-30T09:52:36;11.90;;;8.80;;
26620;SDS011;14253;44.840;10.444;2022-07-30T09:55:04;13.88;;;8.40;;
26620;SDS011;14253;44.840;10.444;2022-07-30T09:57:32;7.80;;;6.88;;
26620;SDS011;14253;44.840;10.444;2022-07-30T10:02:53;8.43;;;7.50;;
26620;SDS011;14253;44.840;10.444;2022-07-30T10:05:56;9.10;;;8.13;;
26620;SDS011;14253;44.840;10.444;2022-07-30T10:08:56;7.70;;;7.00;;
26620;SDS011;14253;44.840;10.444;2022-07-30T10:11:17;9.05;;;7.57;;
26620;SDS011;14253;44.840;10.444;2022-07-30T10:13:49;8.55;;;7.72;;
26620;SDS011;14253;44.840;10.444;2022-07-30T10:16:19;8.50;;;6.88;;
26620;SDS011;14253;44.840;10.444;2022-07-30T10:18:46;7.45;;;6.25;;
26620;SDS011;14253;44.840;10.444;2022-07-30T10:21:31;8.48;;;7.57;;
26620;SDS011;14253;44.840;10.444;2022-07-30T10:24:16;7.03;;;5.40;;
26620;SDS011;14253;44.840;10.444;2022-07-30T10:26:53;9.35;;;8.35;;
26620;SDS011;14253;44.840;10.444;2022-07-30T10:29:38;8.60;;;7.80;;
26620;SDS011;14253;44.840;10.444;2022-07-30T10:32:05;8.85;;;7.30;;
26620;SDS011;14253;44.840;10.444;2022-07-30T10:34:31;8.63;;;7.72;;
26620;SDS011;14253;44.840;10.444;2022-07-30T10:36:59;10.82;;;7.35;;
26620;SDS011;14253;44.840;10.444;2022-07-30T10:39:29;10.20;;;7.63;;
26620;SDS011;14253;44.840;10.444;2022-07-30T10:42:09;8.93;;;6.75;;
26620;SDS011;14253;44.840;10.444;2022-07-30T10:47:28;6.63;;;3.70;;
26620;SDS011;14253;44.840;10.444;2022-07-30T10:50:08;2.95;;;2.33;;
26620;SDS011;14253;44.840;10.444;2022-07-30T10:53:00;3.72;;;3.20;;
26620;SDS011;14253;44.840;10.444;2022-07-30T10:55:27;14.40;;;3.53;;
26620;SDS011;14253;44.840;10.444;2022-07-30T10:58:02;5.65;;;4.40;;
26620;SDS011;14253;44.840;10.444;2022-07-30T11:00:32;8.02;;;4.80;;
26620;SDS011;14253;44.840;10.444;2022-07-30T11:03:13;4.30;;;3.90;;
26620;SDS011;14253;44.840;10.444;2022-07-30T11:05:48;4.65;;;3.10;;
26620;SDS011;14253;44.840;10.444;2022-07-30T11:11:01;3.88;;;3.33;;
26620;SDS011;14253;44.840;10.444;2022-07-30T11:19:06;5.10;;;2.75;;
26620;SDS011;14253;44.840;10.444;2022-07-30T11:21:34;4.30;;;2.95;;
26620;SDS011;14253;44.840;10.444;2022-07-30T11:24:01;3.65;;;3.17;;
26620;SDS011;14253;44.840;10.444;2022-07-30T11:29:31;5.82;;;3.00;;
26620;SDS011;14253;44.840;10.444;2022-07-30T11:32:21;3.15;;;2.58;;
26620;SDS011;14253;44.840;10.444;2022-07-30T11:34:51;3.75;;;3.03;;
26620;SDS011;14253;44.840;10.444;2022-07-30T11:40:21;4.03;;;3.10;;
26620;SDS011;14253;44.840;10.444;2022-07-30T11:42:49;5.15;;;3.75;;
26620;SDS011;14253;44.840;10.444;2022-07-30T11:47:43;4.55;;;3.53;;
26620;SDS011;14253;44.840;10.444;2022-07-30T11:52:49;7.45;;;3.50;;
26620;SDS011;14253;44.840;10.444;2022-07-30T11:55:21;3.83;;;3.35;;
26620;SDS011;14253;44.840;10.444;2022-07-30T11:57:51;3.35;;;3.05;;
26620;SDS011;14253;44.840;10.444;2022-07-30T12:00:38;4.95;;;2.75;;
26620;SDS011;14253;44.840;10.444;2022-07-30T12:03:06;4.15;;;2.80;;
26620;SDS011;14253;44.840;10.444;2022-07-30T12:05:33;5.88;;;3.40;;
26620;SDS011;14253;44.840;10.444;2022-07-30T12:08:00;3.78;;;3.45;;
26620;SDS011;14253;44.840;10.444;2022-07-30T12:10:26;3.88;;;3.28;;
26620;SDS011;14253;44.840;10.444;2022-07-30T12:12:52;3.95;;;2.90;;
26620;SDS011;14253;44.840;10.444;2022-07-30T12:15:33;2.95;;;2.75;;
26620;SDS011;14253;44.840;10.444;2022-07-30T12:18:00;3.45;;;3.13;;
26620;SDS011;14253;44.840;10.444;2022-07-30T12:20:26;5.18;;;3.88;;
26620;SDS011;14253;44.840;10.444;2022-07-30T12:22:54;3.88;;;3.45;;
26620;SDS011;14253;44.840;10.444;2022-07-30T12:25:21;3.72;;;3.00;;
26620;SDS011;14253;44.840;10.444;2022-07-30T12:27:47;6.22;;;4.10;;
26620;SDS011;14253;44.840;10.444;2022-07-30T12:30:15;4.57;;;3.88;;
26620;SDS011;14253;44.840;10.444;2022-07-30T12:32:45;4.78;;;3.70;;
26620;SDS011;14253;44.840;10.444;2022-07-30T12:35:12;6.18;;;3.90;;
26620;SDS011;14253;44.840;10.444;2022-07-30T12:37:38;4.22;;;3.55;;
26620;SDS011;14253;44.840;10.444;2022-07-30T12:40:06;3.30;;;2.92;;
26620;SDS011;14253;44.840;10.444;2022-07-30T12:42:34;3.53;;;2.95;;
26620;SDS011;14253;44.840;10.444;2022-07-30T12:45:02;5.18;;;3.50;;
26620;SDS011;14253;44.840;10.444;2022-07-30T12:47:29;3.00;;;2.67;;
26620;SDS011;14253;44.840;10.444;2022-07-30T12:49:56;4.15;;;2.42;;
26620;SDS011;14253;44.840;10.444;2022-07-30T12:52:24;2.75;;;2.20;;
26620;SDS011;14253;44.840;10.444;2022-07-30T13:00:20;3.08;;;2.00;;
26620;SDS011;14253;44.840;10.444;2022-07-30T13:02:47;3.22;;;2.40;;
26620;SDS011;14253;44.840;10.444;2022-07-30T13:05:14;3.55;;;2.35;;
26620;SDS011;14253;44.840;10.444;2022-07-30T13:07:56;3.33;;;3.03;;
26620;SDS011;14253;44.840;10.444;2022-07-30T13:10:23;3.25;;;2.50;;
26620;SDS011;14253;44.840;10.444;2022-07-30T13:12:51;5.28;;;2.85;;
26620;SDS011;14253;44.840;10.444;2022-07-30T13:15:19;3.47;;;2.65;;
26620;SDS011;14253;44.840;10.444;2022-07-30T13:17:47;2.90;;;2.38;;
26620;SDS011;14253;44.840;10.444;2022-07-30T13:20:14;4.47;;;2.65;;
26620;SDS011;14253;44.840;10.444;2022-07-30T13:22:41;4.68;;;2.20;;
26620;SDS011;14253;44.840;10.444;2022-07-30T13:25:08;3.75;;;2.40;;
26620;SDS011;14253;44.840;10.444;2022-07-30T13:27:35;2.72;;;2.22;;
26620;SDS011;14253;44.840;10.444;2022-07-30T13:30:02;2.65;;;2.25;;
26620;SDS011;14253;44.840;10.444;2022-07-30T13:32:29;3.65;;;2.55;;
26620;SDS011;14253;44.840;10.444;2022-07-30T13:34:55;6.03;;;2.10;;
26620;SDS011;14253;44.840;10.444;2022-07-30T13:37:22;4.38;;;1.92;;
26620;SDS011;14253;44.840;10.444;2022-07-30T13:39:48;1.85;;;1.65;;
26620;SDS011;14253;44.840;10.444;2022-07-30T13:42:14;2.38;;;2.17;;
26620;SDS011;14253;44.840;10.444;2022-07-30T13:44:40;3.13;;;1.80;;
26620;SDS011;14253;44.840;10.444;2022-07-30T13:47:06;3.60;;;1.60;;
26620;SDS011;14253;44.840;10.444;2022-07-30T13:49:34;3.83;;;1.70;;
26620;SDS011;14253;44.840;10.444;2022-07-30T13:52:03;2.80;;;1.58;;
26620;SDS011;14253;44.840;10.444;2022-07-30T13:54:29;2.00;;;1.85;;
26620;SDS011;14253;44.840;10.444;2022-07-30T13:56:55;2.50;;;2.08;;
26620;SDS011;14253;44.840;10.444;2022-07-30T13:59:21;3.70;;;1.60;;
26620;SDS011;14253;44.840;10.444;2022-07-30T14:01:47;2.50;;;1.95;;
26620;SDS011;14253;44.840;10.444;2022-07-30T14:04:13;3.67;;;2.35;;
26620;SDS011;14253;44.840;10.444;2022-07-30T14:06:39;2.00;;;1.80;;
26620;SDS011;14253;44.840;10.444;2022-07-30T14:09:05;2.83;;;1.60;;
26620;SDS011;14253;44.840;10.444;2022-07-30T14:11:31;1.33;;;1.00;;
26620;SDS011;14253;44.840;10.444;2022-07-30T14:13:57;1.60;;;1.38;;
26620;SDS011;14253;44.840;10.444;2022-07-30T14:16:23;2.92;;;1.30;;
26620;SDS011;14253;44.840;10.444;2022-07-30T14:18:48;3.95;;;1.48;;
26620;SDS011;14253;44.840;10.444;2022-07-30T14:21:14;1.83;;;1.60;;
26620;SDS011;14253;44.840;10.444;2022-07-30T14:23:40;1.13;;;1.00;;
26620;SDS011;14253;44.840;10.444;2022-07-30T14:26:06;2.72;;;1.10;;
26620;SDS011;14253;44.840;10.444;2022-07-30T14:28:32;1.75;;;1.20;;
26620;SDS011;14253;44.840;10.444;2022-07-30T14:30:58;2.17;;;1.30;;
26620;SDS011;14253;44.840;10.444;2022-07-30T14:33:24;2.00;;;1.35;;
26620;SDS011;14253;44.840;10.444;2022-07-30T14:35:50;2.08;;;1.55;;
26620;SDS011;14253;44.840;10.444;2022-07-30T14:38:16;2.95;;;1.30;;
26620;SDS011;14253;44.840;10.444;2022-07-30T14:40:42;3.28;;;1.50;;
26620;SDS011;14253;44.840;10.444;2022-07-30T14:43:08;2.30;;;1.60;;
26620;SDS011;14253;44.840;10.444;2022-07-30T14:45:34;2.35;;;1.40;;
26620;SDS011;14253;44.840;10.444;2022-07-30T14:48:00;1.65;;;1.42;;
26620;SDS011;14253;44.840;10.444;2022-07-30T14:50:26;1.75;;;1.60;;
26620;SDS011;14253;44.840;10.444;2022-07-30T14:52:52;2.35;;;1.63;;
26620;SDS011;14253;44.840;10.444;2022-07-30T14:55:18;2.20;;;1.60;;
26620;SDS011;14253;44.840;10.444;2022-07-30T14:57:44;2.88;;;1.50;;
26620;SDS011;14253;44.840;10.444;2022-07-30T15:00:10;2.42;;;1.38;;
26620;SDS011;14253;44.840;10.444;2022-07-30T15:02:36;4.47;;;1.42;;
26620;SDS011;14253;44.840;10.444;2022-07-30T15:05:02;1.35;;;1.25;;
26620;SDS011;14253;44.840;10.444;2022-07-30T15:07:29;1.60;;;1.50;;
26620;SDS011;14253;44.840;10.444;2022-07-30T15:09:55;2.53;;;1.27;;
26620;SDS011;14253;44.840;10.444;2022-07-30T15:12:26;3.60;;;1.40;;